Weather History for Great Bend, KS

Change the Weather History Date:

Monday, February 18, 2013

  Actual Average Record
Temperature  
Mean Temperature 38 °F -  
Max Temperature 50 °F 48 °F 73 °F (2014)
Min Temperature 24 °F 27 °F 35 °F (2014)
Degree Days  
Heating Degree Days 27    
Moisture  
Dew Point 21 °F    
Average Humidity 47    
Maximum Humidity 65    
Minimum Humidity 29    
Precipitation  
Precipitation 0.00 in - - ()
Sea Level Pressure  
Sea Level Pressure 29.80 in    
Wind  
Wind Speed 19 mph (NNW)    
Max Wind Speed 34 mph    
Max Gust Speed 45 mph    
Visibility 10 miles    
Events      
Averages and records for this station are not official NWS values.
T = Trace of Precipitation, MM = Missing Value Source: NWS Daily Summary

Daily Weather History Graph

Daily Weather History Graph

Search for Another Location

Airport:

Trip Planner

Search our weather history database for the weather conditions in past years. The results will help you decide how hot, cold, wet, or windy it might be!

Date:

Astronomy

Feb. 18, 2013 Rise Set
Actual Time 7:21 AM CST 6:17 PM CST
Civil Twilight 6:54 AM CST 6:44 PM CST
Nautical Twilight 6:24 AM CST 7:15 PM CST
Astronomical Twilight 5:53 AM CST 7:45 PM CST
Moon 12:06 PM CST (2/18) 2:00 AM CST (2/18)
Length of Visible Light 11h 49m
Length of Day
10h 55m
First Quarter, 58% of the Moon is Illuminated
Feb 18
First Quarter
Feb 25
Full
Mar 4
Last Quarter
Mar 11
New
Mar 19
First Quarter

Hourly Weather History & Observations

Time (CST) Temp. Windchill Dew Point Humidity Pressure Visibility Wind Dir Wind Speed Gust Speed Precip Events Conditions
12:15 AM 46.4 °F 39.8 °F 24.8 °F 43% 29.46 in 10.0 mi SSE 16.1 mph - N/A   Clear
12:35 AM 46.4 °F 39.2 °F 24.8 °F 43% 29.44 in 10.0 mi South 18.4 mph 24.2 mph N/A   Clear
12:55 AM 46.4 °F 39.2 °F 24.8 °F 43% 29.42 in 10.0 mi South 18.4 mph - N/A   Clear
1:15 AM 46.4 °F 38.7 °F 24.8 °F 43% 29.41 in 10.0 mi South 20.7 mph - N/A   Clear
1:35 AM 46.4 °F 38.3 °F 24.8 °F 43% 29.39 in 10.0 mi South 23.0 mph - N/A   Clear
1:55 AM 46.4 °F 39.0 °F 24.8 °F 43% 29.40 in 10.0 mi South 19.6 mph - N/A   Clear
2:15 AM 46.4 °F 39.8 °F 23.0 °F 40% 29.41 in 10.0 mi SSW 16.1 mph - N/A   Clear
2:35 AM 46.4 °F 40.4 °F 21.2 °F 37% 29.41 in 10.0 mi SSW 13.8 mph - N/A   Clear
2:55 AM 46.4 °F 40.7 °F 21.2 °F 37% 29.43 in 10.0 mi SW 12.7 mph - N/A   Clear
3:15 AM 46.4 °F - 19.4 °F 34% - 10.0 mi North - - N/A   Clear
3:35 AM 44.6 °F 38.8 °F 19.4 °F 37% 29.43 in 10.0 mi West 11.5 mph - N/A   Clear
3:55 AM 41.0 °F 33.9 °F 19.4 °F 42% 29.43 in 10.0 mi West 12.7 mph - N/A   Clear
4:15 AM 39.2 °F 31.2 °F 21.2 °F 49% 29.44 in 10.0 mi NW 13.8 mph 18.4 mph N/A   Clear
4:35 AM 39.2 °F 27.8 °F 24.8 °F 56% 29.47 in 10.0 mi North 27.6 mph 36.8 mph N/A   Clear
4:55 AM 41.0 °F 29.5 °F 26.6 °F 57% 29.50 in 10.0 mi North 32.2 mph 36.8 mph N/A   Clear
5:15 AM 39.2 °F 27.6 °F 26.6 °F 61% 29.53 in 10.0 mi North 28.8 mph 35.7 mph N/A   Clear
5:35 AM 41.0 °F 30.7 °F 28.4 °F 61% 29.53 in 10.0 mi North 25.3 mph 38.0 mph N/A   Clear
5:55 AM 41.0 °F 29.1 °F 28.4 °F 61% 29.55 in 10.0 mi North 34.5 mph 41.4 mph N/A   Clear
6:15 AM 39.2 °F 28.7 °F 28.4 °F 65% 29.59 in 10.0 mi North 23.0 mph 35.7 mph N/A   Clear
6:35 AM 39.2 °F 28.7 °F 28.4 °F 65% 29.62 in 10.0 mi North 23.0 mph 32.2 mph N/A   Clear
6:55 AM 39.2 °F 28.7 °F 26.6 °F 61% 29.65 in 10.0 mi NNW 23.0 mph 31.1 mph N/A   Clear
7:15 AM 37.4 °F 26.9 °F 26.6 °F 65% 29.66 in 10.0 mi NNW 20.7 mph 25.3 mph N/A   Partly Cloudy
7:35 AM 37.4 °F 26.6 °F 26.6 °F 65% 29.68 in 10.0 mi NNW 21.9 mph 31.1 mph N/A   Partly Cloudy
7:55 AM 37.4 °F 26.9 °F 26.6 °F 65% 29.70 in 10.0 mi NNW 20.7 mph 26.5 mph N/A   Clear
8:15 AM 39.2 °F 28.7 °F 26.6 °F 61% 29.72 in 10.0 mi NNW 23.0 mph 28.8 mph N/A   Clear
8:35 AM 39.2 °F 28.0 °F 24.8 °F 56% 29.74 in 10.0 mi NNW 26.5 mph 34.5 mph N/A   Partly Cloudy
8:55 AM 39.2 °F 28.3 °F 24.8 °F 56% 29.77 in 10.0 mi NNW 25.3 mph 39.1 mph N/A   Mostly Cloudy
9:15 AM 41.0 °F 29.3 °F 26.6 °F 57% 29.78 in 10.0 mi North 33.4 mph 39.1 mph N/A   Partly Cloudy
9:35 AM 42.8 °F 32.1 °F 24.8 °F 49% 29.79 in 10.0 mi North 31.1 mph 44.9 mph N/A   Clear
9:55 AM 42.8 °F 31.9 °F 26.6 °F 53% 29.80 in 10.0 mi North 32.2 mph 40.3 mph N/A   Clear
10:15 AM 42.8 °F 31.9 °F 24.8 °F 49% 29.81 in 10.0 mi NNW 32.2 mph 40.3 mph N/A   Partly Cloudy
10:35 AM 44.6 °F 35.3 °F 26.6 °F 49% 29.83 in 10.0 mi NNW 26.5 mph 41.4 mph N/A   Scattered Clouds
10:55 AM 42.8 °F 32.3 °F 24.8 °F 49% 29.85 in 10.0 mi NNW 29.9 mph 39.1 mph N/A   Mostly Cloudy
11:15 AM 42.8 °F 32.3 °F 24.8 °F 49% 29.85 in 10.0 mi NNW 29.9 mph 33.4 mph N/A   Mostly Cloudy
11:35 AM 44.6 °F 35.5 °F 24.8 °F 46% 29.86 in 10.0 mi NNW 25.3 mph 32.2 mph N/A   Scattered Clouds
11:55 AM 46.4 °F 38.1 °F 24.8 °F 43% 29.87 in 10.0 mi NNW 24.2 mph 33.4 mph N/A   Partly Cloudy
12:15 PM 46.4 °F 37.9 °F 24.8 °F 43% 29.87 in 10.0 mi NNW 25.3 mph 34.5 mph N/A   Partly Cloudy
12:35 PM 48.2 °F - 24.8 °F 40% 29.87 in 10.0 mi North 28.8 mph 35.7 mph N/A   Scattered Clouds
12:55 PM 46.4 °F 37.7 °F 23.0 °F 40% 29.88 in 10.0 mi NNW 26.5 mph 32.2 mph N/A   Mostly Cloudy
1:15 PM 46.4 °F 38.7 °F 24.8 °F 43% 29.88 in 10.0 mi NNW 20.7 mph 28.8 mph N/A   Mostly Cloudy
1:35 PM 48.2 °F - 23.0 °F 37% 29.88 in 10.0 mi NNW 21.9 mph 28.8 mph N/A   Mostly Cloudy
1:55 PM 48.2 °F - 23.0 °F 37% 29.88 in 10.0 mi NNW 26.5 mph 32.2 mph N/A   Mostly Cloudy
2:15 PM 48.2 °F - 23.0 °F 37% 29.88 in 10.0 mi NNW 26.5 mph 31.1 mph N/A   Mostly Cloudy
2:35 PM 48.2 °F - 21.2 °F 34% 29.89 in 10.0 mi NNW 19.6 mph 31.1 mph N/A   Partly Cloudy
2:55 PM 50.0 °F - 21.2 °F 32% 29.89 in 10.0 mi NNW 23.0 mph 31.1 mph N/A   Clear
3:15 PM 50.0 °F - 19.4 °F 30% 29.90 in 10.0 mi North 25.3 mph 32.2 mph N/A   Clear
3:35 PM 50.0 °F - 19.4 °F 30% 29.90 in 10.0 mi North 23.0 mph 29.9 mph N/A   Clear
3:55 PM 50.0 °F - 19.4 °F 30% 29.92 in 10.0 mi NNW 21.9 mph 28.8 mph N/A   Clear
4:15 PM 48.2 °F - 17.6 °F 30% 29.92 in 10.0 mi North 19.6 mph 27.6 mph N/A   Clear
4:35 PM 48.2 °F - 17.6 °F 30% 29.93 in 10.0 mi North 21.9 mph 26.5 mph N/A   Clear
4:55 PM 48.2 °F - 17.6 °F 30% 29.95 in 10.0 mi North 18.4 mph 25.3 mph N/A   Clear
5:15 PM 46.4 °F 38.1 °F 15.8 °F 29% 29.96 in 10.0 mi North 24.2 mph 27.6 mph N/A   Clear
5:35 PM 46.4 °F 39.5 °F 15.8 °F 29% 29.97 in 10.0 mi North 17.3 mph - N/A   Clear
5:55 PM 44.6 °F 38.1 °F 15.8 °F 31% 29.98 in 10.0 mi North 13.8 mph - N/A   Clear
6:15 PM 42.8 °F 35.8 °F 15.8 °F 34% 29.99 in 10.0 mi North 13.8 mph - N/A   Clear
6:35 PM 39.2 °F 32.5 °F 15.8 °F 39% 30.01 in 10.0 mi North 10.4 mph - N/A   Clear
6:55 PM 35.6 °F 28.6 °F 14.0 °F 41% 30.02 in 10.0 mi North 9.2 mph - N/A   Clear
7:15 PM 33.8 °F 28.6 °F 14.0 °F 44% 30.04 in 10.0 mi North 5.8 mph - N/A   Clear
7:35 PM 33.8 °F 27.0 °F 14.0 °F 44% 30.05 in 10.0 mi North 8.1 mph - N/A   Clear
7:55 PM 33.8 °F 28.6 °F 14.0 °F 44% 30.06 in 10.0 mi North 5.8 mph - N/A   Clear
8:15 PM 32.0 °F 28.7 °F 15.8 °F 51% 30.07 in 10.0 mi NNW 3.5 mph - N/A   Clear
8:35 PM 30.2 °F 24.3 °F 14.0 °F 51% 30.07 in 10.0 mi North 5.8 mph - N/A   Clear
8:55 PM 30.2 °F 21.9 °F 15.8 °F 55% 30.08 in 10.0 mi NNE 9.2 mph - N/A   Clear
9:15 PM 28.4 °F 20.4 °F 15.8 °F 59% 30.08 in 10.0 mi North 8.1 mph - N/A   Clear
9:35 PM 28.4 °F - 15.8 °F 59% 30.09 in 10.0 mi Calm Calm - N/A   Clear
9:55 PM 26.6 °F 22.6 °F 14.0 °F 59% 30.11 in 10.0 mi SW 3.5 mph - N/A   Partly Cloudy
10:15 PM 28.4 °F - 15.8 °F 59% 30.11 in 10.0 mi Calm Calm - N/A   Scattered Clouds
10:35 PM 26.6 °F - 14.0 °F 59% 30.12 in 10.0 mi Calm Calm - N/A   Mostly Cloudy
10:55 PM 26.6 °F 22.6 °F 15.8 °F 64% 30.12 in 10.0 mi WNW 3.5 mph - N/A   Scattered Clouds
11:15 PM 26.6 °F 20.0 °F 15.8 °F 64% 30.12 in 10.0 mi WNW 5.8 mph - N/A   Partly Cloudy
11:35 PM 26.6 °F 21.2 °F 15.8 °F 64% 30.12 in 10.0 mi WNW 4.6 mph - N/A   Mostly Cloudy
11:55 PM 24.8 °F 17.9 °F 14.0 °F 64% 30.13 in 10.0 mi WNW 5.8 mph - N/A   Mostly Cloudy